createdAt,value
2019-01-08T00:02:28.194Z,7.90
2019-01-08T00:04:57.486Z,8.00
2019-01-08T00:07:26.817Z,8.00
2019-01-08T00:09:56.451Z,8.00
2019-01-08T00:12:26.135Z,8.00
2019-01-08T00:14:55.530Z,8.00
2019-01-08T00:17:24.861Z,7.90
2019-01-08T00:19:54.287Z,7.90
2019-01-08T00:22:23.705Z,8.00
2019-01-08T00:24:53.043Z,8.00
2019-01-08T00:27:22.374Z,8.00
2019-01-08T00:29:52.246Z,8.00
2019-01-08T00:32:21.557Z,8.00
2019-01-08T00:34:50.890Z,8.00
2019-01-08T00:37:20.222Z,8.10
2019-01-08T00:39:49.584Z,8.10
2019-01-08T00:42:18.907Z,8.10
2019-01-08T00:44:48.221Z,8.10
2019-01-08T00:47:17.513Z,8.10
2019-01-08T00:49:46.951Z,8.10
2019-01-08T00:52:16.269Z,8.10
2019-01-08T00:54:46.028Z,8.20
2019-01-08T00:57:15.347Z,8.10
2019-01-08T00:59:45.092Z,8.20
2019-01-08T01:02:14.394Z,8.20
2019-01-08T01:04:43.726Z,8.20
2019-01-08T01:07:13.093Z,8.20
2019-01-08T01:09:43.782Z,7.90
2019-01-08T01:12:13.288Z,7.60
2019-01-08T01:14:42.546Z,7.40
2019-01-08T01:17:11.913Z,7.40
2019-01-08T01:19:41.521Z,7.40
2019-01-08T01:22:10.828Z,7.40
2019-01-08T01:24:40.113Z,7.50
2019-01-08T01:27:09.890Z,7.50
2019-01-08T01:29:39.637Z,7.50
2019-01-08T01:32:08.972Z,7.50
2019-01-08T01:34:38.276Z,7.40
2019-01-08T01:37:07.637Z,7.50
2019-01-08T01:39:36.968Z,7.40
2019-01-08T01:42:08.385Z,7.50
2019-01-08T01:44:38.108Z,7.50
2019-01-08T01:47:07.809Z,7.50
2019-01-08T01:49:37.090Z,7.50
2019-01-08T01:52:06.412Z,7.40
2019-01-08T01:54:35.842Z,7.40
2019-01-08T01:57:07.935Z,7.40
2019-01-08T01:59:37.219Z,7.30
2019-01-08T02:02:06.668Z,7.30
2019-01-08T02:04:35.979Z,7.20
2019-01-08T02:07:07.603Z,7.20
2019-01-08T02:09:37.345Z,7.20
2019-01-08T02:12:06.872Z,7.20
2019-01-08T02:14:36.365Z,7.20
2019-01-08T02:17:05.924Z,7.10
2019-01-08T02:19:35.228Z,7.00
2019-01-08T02:22:04.538Z,7.00
2019-01-08T02:24:33.904Z,6.90
2019-01-08T02:27:03.243Z,7.00
2019-01-08T02:29:32.689Z,6.90
2019-01-08T02:32:02.110Z,6.80
2019-01-08T02:34:31.487Z,6.80
2019-01-08T02:37:00.815Z,6.80
2019-01-08T02:39:30.568Z,6.80
2019-01-08T02:42:01.408Z,6.80
2019-01-08T02:44:30.857Z,6.80
2019-01-08T02:47:00.321Z,6.70
2019-01-08T02:49:30.008Z,6.70
2019-01-08T02:51:59.338Z,6.70
2019-01-08T02:54:28.564Z,6.60
2019-01-08T02:56:57.955Z,6.60
2019-01-08T02:59:27.260Z,6.50
2019-01-08T03:01:56.892Z,6.50
2019-01-08T03:04:26.201Z,6.50
2019-01-08T03:06:55.837Z,6.50
2019-01-08T03:09:27.693Z,6.50
2019-01-08T03:11:57.000Z,6.50
2019-01-08T03:14:26.350Z,6.50
2019-01-08T03:16:55.633Z,6.50
2019-01-08T03:19:24.960Z,6.50
2019-01-08T03:21:54.585Z,6.50
2019-01-08T03:24:23.981Z,6.50
2019-01-08T03:26:53.828Z,6.60
2019-01-08T03:29:23.140Z,6.60
2019-01-08T03:31:52.418Z,6.60
2019-01-08T03:34:21.769Z,6.60
2019-01-08T03:36:51.180Z,6.70
2019-01-08T03:39:20.500Z,6.70
2019-01-08T03:41:49.910Z,6.60
2019-01-08T03:44:19.660Z,6.70
2019-01-08T03:46:49.016Z,6.70
2019-01-08T03:49:18.316Z,6.70
2019-01-08T03:51:47.640Z,6.70
2019-01-08T03:54:17.323Z,6.70
2019-01-08T03:56:46.637Z,6.70
2019-01-08T03:59:15.968Z,6.70
2019-01-08T04:01:45.305Z,6.70
2019-01-08T04:04:15.031Z,6.60
2019-01-08T04:06:44.370Z,6.60
2019-01-08T04:09:13.682Z,6.70
2019-01-08T04:11:42.973Z,6.70
2019-01-08T04:14:12.355Z,6.70
2019-01-08T04:16:42.053Z,6.60
2019-01-08T04:19:11.799Z,6.60
2019-01-08T04:21:41.175Z,6.60
2019-01-08T04:24:14.532Z,6.60
2019-01-08T04:26:43.827Z,6.60
2019-01-08T04:29:13.195Z,6.60
2019-01-08T04:31:42.512Z,6.60
2019-01-08T04:34:11.800Z,6.60
2019-01-08T04:36:42.431Z,6.60
2019-01-08T04:39:11.735Z,6.60
2019-01-08T04:41:41.031Z,6.50
2019-01-08T04:44:10.472Z,6.50
2019-01-08T04:46:39.777Z,6.50
2019-01-08T04:49:09.224Z,6.40
2019-01-08T04:51:40.630Z,6.30
2019-01-08T04:54:10.201Z,6.30
2019-01-08T04:56:39.500Z,6.20
2019-01-08T04:59:10.508Z,6.20
2019-01-08T05:01:40.162Z,6.20
2019-01-08T05:04:09.588Z,6.10
2019-01-08T05:06:38.948Z,6.10
2019-01-08T05:09:11.481Z,6.10
2019-01-08T05:11:40.837Z,6.10
2019-01-08T05:14:12.560Z,6.10
2019-01-08T05:16:42.378Z,6.10
2019-01-08T05:19:12.188Z,6.10
2019-01-08T05:21:41.519Z,6.20
2019-01-08T05:24:10.928Z,6.20
2019-01-08T05:26:40.226Z,6.20
2019-01-08T05:29:10.066Z,6.20
2019-01-08T05:31:39.445Z,6.20
2019-01-08T05:34:08.741Z,6.20
2019-01-08T05:36:38.070Z,6.20
2019-01-08T05:39:07.549Z,6.20
2019-01-08T05:41:36.827Z,6.20
2019-01-08T05:44:06.170Z,6.10
2019-01-08T05:46:35.460Z,6.10
2019-01-08T05:49:05.154Z,6.10
2019-01-08T05:51:34.485Z,6.00
2019-01-08T05:54:04.208Z,6.00
2019-01-08T05:56:33.510Z,6.00
2019-01-08T05:59:02.814Z,6.00
2019-01-08T06:01:33.845Z,6.00
2019-01-08T06:04:03.318Z,6.00
2019-01-08T06:06:32.566Z,5.90
2019-01-08T06:09:01.861Z,5.90
2019-01-08T06:11:31.216Z,5.80
2019-01-08T06:14:00.595Z,5.80
2019-01-08T06:16:29.916Z,5.80
2019-01-08T06:18:59.602Z,5.80
2019-01-08T06:21:30.094Z,5.80
2019-01-08T06:23:59.412Z,5.80
2019-01-08T06:26:28.776Z,5.70
2019-01-08T06:28:58.454Z,5.60
2019-01-08T06:31:27.861Z,5.60
2019-01-08T06:33:57.585Z,5.60
2019-01-08T06:36:26.927Z,5.50
2019-01-08T06:38:56.318Z,5.50
2019-01-08T06:41:25.685Z,5.50
2019-01-08T06:43:55.127Z,5.50
2019-01-08T06:46:25.630Z,5.50
2019-01-08T06:48:55.235Z,5.50
2019-01-08T06:51:24.655Z,5.50
2019-01-08T06:53:53.953Z,5.50
2019-01-08T06:56:24.759Z,5.50
2019-01-08T06:58:54.410Z,5.60
2019-01-08T07:01:23.752Z,5.50
2019-01-08T07:03:53.450Z,5.40
2019-01-08T07:06:22.854Z,5.40
2019-01-08T07:08:52.193Z,5.40
2019-01-08T07:11:21.584Z,5.40
2019-01-08T07:13:51.426Z,5.40
2019-01-08T07:16:20.867Z,5.40
2019-01-08T07:18:50.167Z,5.40
2019-01-08T07:21:19.458Z,5.40
2019-01-08T07:23:48.833Z,5.40
2019-01-08T07:26:18.152Z,5.40
2019-01-08T07:28:47.859Z,5.40
2019-01-08T07:31:17.536Z,5.40
2019-01-08T07:33:47.142Z,5.50
2019-01-08T07:36:16.991Z,5.40
2019-01-08T07:38:46.583Z,5.40
2019-01-08T07:41:15.948Z,5.40
2019-01-08T07:43:45.725Z,5.50
2019-01-08T07:46:15.055Z,5.50
2019-01-08T07:48:44.337Z,5.50
2019-01-08T07:51:13.631Z,5.50
2019-01-08T07:53:42.952Z,5.50
2019-01-08T07:56:12.249Z,5.50
2019-01-08T07:58:41.581Z,5.50
2019-01-08T08:01:10.937Z,5.50
2019-01-08T08:03:40.630Z,5.50
2019-01-08T08:06:09.946Z,5.50
2019-01-08T08:08:39.276Z,5.60
2019-01-08T08:11:08.976Z,5.60
2019-01-08T08:13:38.323Z,5.60
2019-01-08T08:16:07.629Z,5.60
2019-01-08T08:18:37.025Z,5.60
2019-01-08T08:21:06.317Z,5.60
2019-01-08T08:23:35.666Z,5.60
2019-01-08T08:26:04.951Z,5.50
2019-01-08T08:28:34.297Z,5.50
2019-01-08T08:31:03.612Z,5.50
2019-01-08T08:33:33.034Z,5.50
2019-01-08T08:36:02.336Z,5.50
2019-01-08T08:38:32.062Z,5.50
2019-01-08T08:41:01.349Z,5.50
2019-01-08T08:43:31.317Z,5.60
2019-01-08T08:46:00.608Z,5.60
2019-01-08T08:48:29.924Z,5.60
2019-01-08T08:51:01.570Z,5.60
2019-01-08T08:53:32.846Z,5.60
2019-01-08T08:56:02.166Z,5.60
2019-01-08T08:58:32.526Z,5.60
2019-01-08T09:01:06.858Z,5.70
2019-01-08T09:03:32.972Z,5.70
2019-01-08T09:06:02.306Z,5.70
2019-01-08T09:08:31.636Z,5.70
2019-01-08T09:11:00.920Z,5.70
2019-01-08T09:13:30.235Z,5.70
2019-01-08T09:16:02.717Z,5.70
2019-01-08T09:18:33.704Z,5.70
2019-01-08T09:21:03.185Z,5.70
2019-01-08T09:23:32.482Z,5.70
2019-01-08T09:26:01.873Z,5.70
2019-01-08T09:28:31.175Z,5.80
2019-01-08T09:31:00.468Z,5.80
2019-01-08T09:33:29.786Z,5.80
2019-01-08T09:35:59.140Z,5.80
2019-01-08T09:38:28.536Z,5.80
2019-01-08T09:40:57.832Z,5.80
2019-01-08T09:43:29.148Z,5.90
2019-01-08T09:45:58.226Z,5.90
2019-01-08T09:48:27.561Z,5.90
2019-01-08T09:50:56.875Z,5.90
2019-01-08T09:53:26.224Z,6.00
2019-01-08T09:55:55.560Z,6.00
2019-01-08T09:58:25.253Z,5.90
2019-01-08T10:00:54.645Z,5.90
2019-01-08T10:03:23.967Z,5.80
2019-01-08T10:05:53.269Z,5.90
2019-01-08T10:08:22.589Z,5.80
2019-01-08T10:10:51.973Z,5.70
2019-01-08T10:13:21.319Z,5.80
2019-01-08T10:15:50.584Z,5.80
2019-01-08T10:18:19.956Z,5.90
2019-01-08T10:20:49.323Z,5.90
2019-01-08T10:23:20.677Z,6.00
2019-01-08T10:25:50.055Z,6.00
2019-01-08T10:28:19.518Z,6.00
2019-01-08T10:30:48.908Z,6.10
2019-01-08T10:33:18.202Z,6.10
2019-01-08T10:35:47.462Z,6.10
2019-01-08T10:38:16.766Z,6.20
2019-01-08T10:40:46.081Z,6.30
2019-01-08T10:43:16.008Z,6.30
2019-01-08T10:45:45.753Z,6.30
2019-01-08T10:48:15.039Z,6.30
2019-01-08T10:50:44.381Z,6.30
2019-01-08T10:53:13.689Z,6.30
2019-01-08T10:55:43.104Z,6.40
2019-01-08T10:58:12.421Z,6.40
2019-01-08T11:00:41.737Z,6.40
2019-01-08T11:03:11.072Z,6.50
2019-01-08T11:05:40.969Z,6.50
2019-01-08T11:08:10.376Z,6.50
2019-01-08T11:10:39.676Z,6.50
2019-01-08T11:13:08.983Z,6.50
2019-01-08T11:15:39.747Z,6.50
2019-01-08T11:18:09.059Z,6.50
2019-01-08T11:20:38.321Z,6.60
2019-01-08T11:23:07.649Z,6.50
2019-01-08T11:25:37.031Z,6.50
2019-01-08T11:28:06.355Z,6.60
2019-01-08T11:30:35.758Z,6.60
2019-01-08T11:33:05.097Z,6.70
2019-01-08T11:35:42.058Z,6.70
2019-01-08T11:38:05.477Z,6.70
2019-01-08T11:40:34.836Z,6.60
2019-01-08T11:43:04.165Z,6.60
2019-01-08T11:45:33.533Z,6.70
2019-01-08T11:48:04.205Z,6.70
2019-01-08T11:50:33.781Z,6.80
2019-01-08T11:53:03.101Z,6.80
2019-01-08T11:55:32.783Z,6.80
2019-01-08T11:58:02.978Z,6.80
2019-01-08T12:00:32.317Z,6.70
2019-01-08T12:03:01.629Z,6.60
2019-01-08T12:05:30.928Z,6.50
2019-01-08T12:08:00.236Z,6.50
2019-01-08T12:10:29.932Z,6.50
2019-01-08T12:12:59.220Z,6.40
2019-01-08T12:15:28.526Z,6.50
2019-01-08T12:17:57.932Z,6.50
2019-01-08T12:20:27.246Z,6.50
2019-01-08T12:22:56.558Z,6.40
2019-01-08T12:25:25.929Z,6.40
2019-01-08T12:27:55.338Z,6.40
2019-01-08T12:30:24.768Z,6.50
2019-01-08T12:32:54.066Z,6.50
2019-01-08T12:35:23.414Z,6.40
2019-01-08T12:37:55.976Z,6.40
2019-01-08T12:40:25.305Z,6.50
2019-01-08T12:42:54.577Z,6.70
2019-01-08T12:45:24.391Z,6.80
2019-01-08T12:47:53.692Z,6.80
2019-01-08T12:50:23.105Z,6.70
2019-01-08T12:52:52.444Z,6.70
2019-01-08T12:55:21.737Z,6.60
2019-01-08T12:57:51.480Z,6.60
2019-01-08T13:00:21.557Z,6.60
2019-01-08T13:02:57.784Z,6.60
2019-01-08T13:05:27.120Z,6.40
2019-01-08T13:08:07.930Z,6.40
2019-01-08T13:10:37.286Z,6.40
2019-01-08T13:13:07.007Z,6.40
2019-01-08T13:15:36.290Z,6.50
2019-01-08T13:18:05.920Z,6.50
2019-01-08T13:20:37.571Z,6.70
2019-01-08T13:23:06.916Z,6.70
2019-01-08T13:25:36.435Z,6.70
2019-01-08T13:28:05.820Z,6.70
2019-01-08T13:30:35.142Z,6.70
2019-01-08T13:33:04.465Z,6.60
2019-01-08T13:35:33.781Z,6.50
2019-01-08T13:38:06.392Z,6.40
2019-01-08T13:40:36.164Z,6.20
2019-01-08T13:43:05.500Z,6.00
2019-01-08T13:45:34.852Z,5.80
2019-01-08T13:48:04.221Z,5.70
2019-01-08T13:50:33.518Z,5.70
2019-01-08T13:53:03.064Z,5.70
2019-01-08T13:55:32.428Z,5.70
2019-01-08T13:58:01.755Z,5.70
2019-01-08T14:00:31.765Z,5.70
2019-01-08T14:03:01.169Z,5.80
2019-01-08T14:05:30.492Z,5.80
2019-01-08T14:07:59.805Z,6.00
2019-01-08T14:10:29.132Z,6.00
2019-01-08T14:12:58.422Z,6.10
2019-01-08T14:15:27.814Z,6.10
2019-01-08T14:17:57.131Z,6.00
2019-01-08T14:20:26.454Z,6.00
2019-01-08T14:22:55.847Z,6.00
2019-01-08T14:25:28.378Z,6.00
2019-01-08T14:27:58.099Z,6.00
2019-01-08T14:30:27.799Z,5.90
2019-01-08T14:32:57.193Z,5.90
2019-01-08T14:35:26.950Z,5.90
2019-01-08T14:37:56.365Z,5.90
2019-01-08T14:40:25.858Z,6.00
2019-01-08T14:42:55.204Z,5.90
2019-01-08T14:45:24.477Z,6.00
2019-01-08T14:47:54.784Z,6.00
2019-01-08T14:50:24.565Z,6.00
2019-01-08T14:52:53.935Z,6.00
2019-01-08T14:55:23.301Z,6.00
2019-01-08T14:57:52.733Z,6.00
2019-01-08T15:00:22.431Z,6.00
2019-01-08T15:02:52.254Z,5.90
2019-01-08T15:05:21.573Z,5.90
2019-01-08T15:07:50.889Z,6.00
2019-01-08T15:10:21.109Z,6.00
2019-01-08T15:12:50.421Z,6.10
2019-01-08T15:15:22.488Z,6.10
2019-01-08T15:17:51.883Z,6.20
2019-01-08T15:20:21.191Z,6.20
2019-01-08T15:22:50.695Z,6.20
2019-01-08T15:25:20.104Z,6.10
2019-01-08T15:27:49.370Z,6.00
2019-01-08T15:30:18.651Z,6.00
2019-01-08T15:32:47.999Z,5.90
2019-01-08T15:35:17.325Z,5.90
2019-01-08T15:37:47.083Z,5.90
2019-01-08T15:40:16.401Z,5.90
2019-01-08T15:42:45.779Z,5.90
2019-01-08T15:45:19.185Z,5.90
2019-01-08T15:47:51.932Z,5.90
2019-01-08T15:50:26.539Z,5.80
2019-01-08T15:52:56.190Z,5.60
2019-01-08T15:55:25.484Z,5.50
2019-01-08T15:57:55.059Z,5.50
2019-01-08T16:00:24.357Z,5.40
2019-01-08T16:02:54.012Z,5.30
2019-01-08T16:05:23.340Z,5.20
2019-01-08T16:07:52.712Z,5.20
2019-01-08T16:10:22.232Z,5.10
2019-01-08T16:12:51.506Z,5.10
2019-01-08T16:15:20.829Z,5.10
2019-01-08T16:17:50.261Z,5.10
2019-01-08T16:20:19.995Z,5.10
2019-01-08T16:22:49.344Z,5.10
2019-01-08T16:25:18.767Z,5.10
2019-01-08T16:27:48.140Z,5.20
2019-01-08T16:30:17.539Z,5.20
2019-01-08T16:32:46.836Z,5.30
2019-01-08T16:35:18.449Z,5.40
2019-01-08T16:37:47.755Z,5.40
2019-01-08T16:40:17.535Z,5.40
2019-01-08T16:42:47.151Z,5.40
2019-01-08T16:45:16.500Z,5.40
2019-01-08T16:47:45.946Z,5.40
2019-01-08T16:50:15.367Z,5.40
2019-01-08T16:52:44.676Z,5.40
2019-01-08T16:55:14.014Z,5.40
2019-01-08T16:57:43.334Z,5.40
2019-01-08T17:00:13.241Z,5.40
2019-01-08T17:02:42.563Z,5.40
2019-01-08T17:05:11.953Z,5.40
2019-01-08T17:07:41.287Z,5.40
2019-01-08T17:10:10.647Z,5.40
2019-01-08T17:12:39.948Z,5.40
2019-01-08T17:15:09.308Z,5.40
2019-01-08T17:17:38.709Z,5.40
2019-01-08T17:20:08.460Z,5.30
2019-01-08T17:22:37.762Z,5.30
2019-01-08T17:25:07.509Z,5.40
2019-01-08T17:27:36.868Z,5.40
2019-01-08T17:30:08.413Z,5.40
2019-01-08T17:32:37.801Z,5.30
2019-01-08T17:35:07.387Z,5.30
2019-01-08T17:37:36.755Z,5.30
2019-01-08T17:40:06.635Z,5.30
2019-01-08T17:42:35.975Z,5.30
2019-01-08T17:45:06.241Z,5.30
2019-01-08T17:47:36.417Z,5.30
2019-01-08T17:50:06.061Z,5.30
2019-01-08T17:52:35.374Z,5.30
2019-01-08T17:55:04.898Z,5.30
2019-01-08T17:57:34.232Z,5.30
2019-01-08T18:00:04.341Z,5.40
2019-01-08T18:02:33.698Z,5.40
2019-01-08T18:05:06.338Z,5.40
2019-01-08T18:07:35.648Z,5.30
2019-01-08T18:10:07.548Z,5.30
2019-01-08T18:12:36.936Z,5.30
2019-01-08T18:15:07.081Z,5.30
2019-01-08T18:17:37.732Z,5.30
2019-01-08T18:20:07.525Z,5.30
2019-01-08T18:22:36.902Z,5.30
2019-01-08T18:25:06.475Z,5.30
2019-01-08T18:27:36.016Z,5.40
2019-01-08T18:30:06.135Z,5.40
2019-01-08T18:32:35.902Z,5.30
2019-01-08T18:35:05.376Z,5.30
2019-01-08T18:37:34.714Z,5.40
2019-01-08T18:40:04.306Z,5.30
2019-01-08T18:42:33.625Z,5.40
2019-01-08T18:45:03.324Z,5.40
2019-01-08T18:47:32.720Z,5.40
2019-01-08T18:50:02.020Z,5.40
2019-01-08T18:52:31.367Z,5.30
2019-01-08T18:55:00.699Z,5.30
2019-01-08T18:57:30.174Z,5.30
2019-01-08T18:59:59.459Z,5.30
2019-01-08T19:02:28.788Z,5.30
2019-01-08T19:04:58.201Z,5.20
2019-01-08T19:07:29.835Z,5.30
2019-01-08T19:10:03.886Z,5.30
2019-01-08T19:12:33.299Z,5.30
2019-01-08T19:15:02.666Z,5.30
2019-01-08T19:17:31.987Z,5.20
2019-01-08T19:20:01.814Z,5.30
2019-01-08T19:22:31.904Z,5.20
2019-01-08T19:25:01.600Z,5.20
2019-01-08T19:27:31.001Z,5.20
2019-01-08T19:30:00.416Z,5.20
2019-01-08T19:32:29.776Z,5.20
2019-01-08T19:34:59.159Z,5.30
2019-01-08T19:37:28.484Z,5.30
2019-01-08T19:39:58.274Z,5.30
2019-01-08T19:42:27.615Z,5.30
2019-01-08T19:44:56.964Z,5.30
2019-01-08T19:47:26.741Z,5.30
2019-01-08T19:49:56.468Z,5.20
2019-01-08T19:52:25.952Z,5.10
2019-01-08T19:54:55.273Z,5.00
2019-01-08T19:57:24.623Z,5.00
2019-01-08T19:59:53.928Z,4.90
2019-01-08T20:02:23.410Z,4.90
2019-01-08T20:04:52.694Z,5.00
2019-01-08T20:07:22.094Z,5.00
2019-01-08T20:09:51.440Z,5.00
2019-01-08T20:12:22.381Z,4.90
2019-01-08T20:14:51.719Z,4.90
2019-01-08T20:17:42.975Z,4.90
2019-01-08T20:20:12.422Z,5.00
2019-01-08T20:22:41.832Z,4.90
2019-01-08T20:25:11.222Z,5.00
2019-01-08T20:27:40.627Z,4.90
2019-01-08T20:30:09.970Z,4.90
2019-01-08T20:32:39.747Z,4.90
2019-01-08T20:35:10.295Z,4.90
2019-01-08T20:37:40.103Z,4.80
2019-01-08T20:40:10.133Z,4.70
2019-01-08T20:42:39.675Z,4.70
2019-01-08T20:45:08.977Z,4.70
2019-01-08T20:47:42.485Z,4.70
2019-01-08T20:50:15.135Z,4.70
2019-01-08T20:52:44.573Z,4.70
2019-01-08T20:55:14.091Z,4.70
2019-01-08T20:57:43.372Z,4.60
2019-01-08T21:00:12.993Z,4.60
2019-01-08T21:02:42.352Z,4.60
2019-01-08T21:05:11.722Z,4.60
2019-01-08T21:07:41.392Z,4.60
2019-01-08T21:10:10.931Z,4.70
2019-01-08T21:12:40.273Z,4.60
2019-01-08T21:15:09.588Z,4.70
2019-01-08T21:17:39.104Z,4.70
2019-01-08T21:20:08.462Z,4.70
2019-01-08T21:22:37.815Z,4.70
2019-01-08T21:25:08.932Z,4.70
2019-01-08T21:27:38.737Z,4.70
2019-01-08T21:30:08.557Z,4.70
2019-01-08T21:32:37.967Z,4.80
2019-01-08T21:35:07.385Z,4.80
2019-01-08T21:37:36.947Z,4.80
2019-01-08T21:40:07.233Z,4.80
2019-01-08T21:42:43.053Z,4.80
2019-01-08T21:45:12.381Z,4.80
2019-01-08T21:47:45.934Z,4.80
2019-01-08T21:50:15.311Z,4.80
2019-01-08T21:52:45.120Z,4.80
2019-01-08T21:55:15.639Z,4.80
2019-01-08T21:57:45.004Z,4.80
2019-01-08T22:00:14.285Z,4.90
2019-01-08T22:02:44.322Z,4.90
2019-01-08T22:05:14.081Z,4.90
2019-01-08T22:07:48.738Z,4.80
2019-01-08T22:10:18.162Z,4.80
2019-01-08T22:12:47.437Z,4.80
2019-01-08T22:15:17.844Z,4.80
2019-01-08T22:17:47.190Z,4.70
2019-01-08T22:20:16.459Z,4.70
2019-01-08T22:22:52.544Z,4.80
2019-01-08T22:25:16.902Z,4.80
2019-01-08T22:27:46.267Z,4.80
2019-01-08T22:30:15.593Z,4.80
2019-01-08T22:32:44.943Z,4.80
2019-01-08T22:35:14.273Z,4.80
2019-01-08T22:37:43.847Z,4.90
2019-01-08T22:40:13.160Z,4.90
2019-01-08T22:42:44.252Z,4.90
2019-01-08T22:45:15.266Z,4.90
2019-01-08T22:47:45.004Z,4.90
2019-01-08T22:50:14.406Z,4.90
2019-01-08T22:52:43.830Z,4.90
2019-01-08T22:55:13.342Z,4.90
2019-01-08T22:57:43.305Z,4.90
2019-01-08T23:00:32.934Z,4.90
2019-01-08T23:03:03.375Z,4.90
2019-01-08T23:05:32.836Z,4.80
2019-01-08T23:08:02.139Z,4.80
2019-01-08T23:10:49.217Z,4.80
2019-01-08T23:13:18.471Z,4.70
2019-01-08T23:15:47.784Z,4.70
2019-01-08T23:18:17.208Z,4.60
2019-01-08T23:20:46.492Z,4.60
2019-01-08T23:23:15.801Z,4.60
2019-01-08T23:25:45.061Z,4.50
2019-01-08T23:28:14.360Z,4.50
2019-01-08T23:30:43.993Z,4.60
2019-01-08T23:33:14.357Z,4.60
2019-01-08T23:35:43.717Z,4.50
2019-01-08T23:38:13.014Z,4.50
2019-01-08T23:40:42.291Z,4.50
2019-01-08T23:43:11.568Z,4.50
2019-01-08T23:45:40.849Z,4.50
2019-01-08T23:48:10.252Z,4.50
2019-01-08T23:50:39.507Z,4.50
2019-01-08T23:53:10.555Z,4.40
2019-01-08T23:55:50.974Z,4.40
2019-01-08T23:58:20.346Z,4.50
